sensor_id;sensor_type;location;lat;lon;timestamp;P1;durP1;ratioP1;P2;durP2;ratioP2
65053;SDS011;51639;47.828;35.038;2024-02-04T00:13:47;12.10;;;7.10;;
65053;SDS011;51639;47.828;35.038;2024-02-04T00:28:50;12.20;;;7.47;;
65053;SDS011;51639;47.828;35.038;2024-02-04T00:43:52;12.03;;;7.87;;
65053;SDS011;51639;47.828;35.038;2024-02-04T00:58:54;11.93;;;6.90;;
65053;SDS011;51639;47.828;35.038;2024-02-04T01:13:56;12.27;;;6.70;;
65053;SDS011;51639;47.828;35.038;2024-02-04T01:28:58;11.17;;;6.53;;
65053;SDS011;51639;47.828;35.038;2024-02-04T01:44:00;14.77;;;7.37;;
65053;SDS011;51639;47.828;35.038;2024-02-04T01:59:02;12.73;;;7.47;;
65053;SDS011;51639;47.828;35.038;2024-02-04T02:14:05;10.70;;;5.83;;
65053;SDS011;51639;47.828;35.038;2024-02-04T02:29:12;10.67;;;6.50;;
65053;SDS011;51639;47.828;35.038;2024-02-04T02:44:14;11.10;;;7.23;;
65053;SDS011;51639;47.828;35.038;2024-02-04T02:59:17;14.83;;;7.17;;
65053;SDS011;51639;47.828;35.038;2024-02-04T03:14:19;11.33;;;6.83;;
65053;SDS011;51639;47.828;35.038;2024-02-04T03:29:21;15.80;;;7.17;;
65053;SDS011;51639;47.828;35.038;2024-02-04T03:44:23;16.33;;;7.60;;
65053;SDS011;51639;47.828;35.038;2024-02-04T03:59:25;15.73;;;7.53;;
65053;SDS011;51639;47.828;35.038;2024-02-04T04:14:27;17.33;;;7.53;;
65053;SDS011;51639;47.828;35.038;2024-02-04T04:29:30;12.27;;;6.10;;
65053;SDS011;51639;47.828;35.038;2024-02-04T04:44:31;11.27;;;6.77;;
65053;SDS011;51639;47.828;35.038;2024-02-04T04:59:33;9.93;;;6.33;;
65053;SDS011;51639;47.828;35.038;2024-02-04T05:14:37;13.23;;;7.43;;
65053;SDS011;51639;47.828;35.038;2024-02-04T05:29:39;13.87;;;7.20;;
65053;SDS011;51639;47.828;35.038;2024-02-04T05:44:41;13.57;;;6.93;;
65053;SDS011;51639;47.828;35.038;2024-02-04T05:59:43;12.37;;;6.77;;
65053;SDS011;51639;47.828;35.038;2024-02-04T06:14:45;13.33;;;6.97;;
65053;SDS011;51639;47.828;35.038;2024-02-04T06:29:47;15.63;;;6.23;;
65053;SDS011;51639;47.828;35.038;2024-02-04T06:44:49;9.67;;;6.10;;
65053;SDS011;51639;47.828;35.038;2024-02-04T06:59:51;10.67;;;5.67;;
65053;SDS011;51639;47.828;35.038;2024-02-04T07:14:54;9.87;;;5.23;;
65053;SDS011;51639;47.828;35.038;2024-02-04T07:29:57;12.27;;;6.27;;
65053;SDS011;51639;47.828;35.038;2024-02-04T07:44:59;9.37;;;5.67;;
65053;SDS011;51639;47.828;35.038;2024-02-04T08:00:03;12.73;;;6.07;;
65053;SDS011;51639;47.828;35.038;2024-02-04T08:15:07;9.83;;;5.57;;
65053;SDS011;51639;47.828;35.038;2024-02-04T08:30:09;11.03;;;5.27;;
65053;SDS011;51639;47.828;35.038;2024-02-04T08:45:13;8.07;;;4.40;;
65053;SDS011;51639;47.828;35.038;2024-02-04T09:00:15;5.70;;;3.13;;
65053;SDS011;51639;47.828;35.038;2024-02-04T09:15:18;6.97;;;3.30;;
65053;SDS011;51639;47.828;35.038;2024-02-04T09:30:20;4.23;;;2.50;;
65053;SDS011;51639;47.828;35.038;2024-02-04T09:45:23;7.60;;;2.33;;
65053;SDS011;51639;47.828;35.038;2024-02-04T10:00:25;5.63;;;2.40;;
65053;SDS011;51639;47.828;35.038;2024-02-04T10:15:31;3.87;;;2.03;;
65053;SDS011;51639;47.828;35.038;2024-02-04T10:30:33;5.03;;;2.13;;
65053;SDS011;51639;47.828;35.038;2024-02-04T10:45:36;4.20;;;2.43;;
65053;SDS011;51639;47.828;35.038;2024-02-04T11:00:43;4.27;;;1.80;;
65053;SDS011;51639;47.828;35.038;2024-02-04T11:15:45;5.03;;;2.17;;
65053;SDS011;51639;47.828;35.038;2024-02-04T11:30:49;3.83;;;2.20;;
65053;SDS011;51639;47.828;35.038;2024-02-04T11:45:52;5.37;;;2.30;;
65053;SDS011;51639;47.828;35.038;2024-02-04T12:00:58;7.20;;;2.53;;
65053;SDS011;51639;47.828;35.038;2024-02-04T12:16:01;6.67;;;2.10;;
65053;SDS011;51639;47.828;35.038;2024-02-04T12:31:04;5.27;;;2.40;;
65053;SDS011;51639;47.828;35.038;2024-02-04T12:46:06;4.93;;;1.90;;
65053;SDS011;51639;47.828;35.038;2024-02-04T13:01:10;4.60;;;2.10;;
65053;SDS011;51639;47.828;35.038;2024-02-04T13:16:12;4.33;;;1.90;;
65053;SDS011;51639;47.828;35.038;2024-02-04T13:31:15;3.37;;;1.47;;
65053;SDS011;51639;47.828;35.038;2024-02-04T13:46:17;3.60;;;1.90;;
65053;SDS011;51639;47.828;35.038;2024-02-04T14:01:19;2.03;;;1.33;;
65053;SDS011;51639;47.828;35.038;2024-02-04T14:16:24;4.47;;;1.40;;
65053;SDS011;51639;47.828;35.038;2024-02-04T14:31:27;7.50;;;1.87;;
65053;SDS011;51639;47.828;35.038;2024-02-04T14:46:29;3.53;;;1.50;;
65053;SDS011;51639;47.828;35.038;2024-02-04T15:01:31;3.27;;;1.47;;
65053;SDS011;51639;47.828;35.038;2024-02-04T15:16:34;3.77;;;1.70;;
65053;SDS011;51639;47.828;35.038;2024-02-04T15:31:41;12.47;;;2.97;;
65053;SDS011;51639;47.828;35.038;2024-02-04T15:46:43;3.40;;;1.43;;
65053;SDS011;51639;47.828;35.038;2024-02-04T16:01:51;5.10;;;1.90;;
65053;SDS011;51639;47.828;35.038;2024-02-04T16:16:54;4.23;;;1.73;;
65053;SDS011;51639;47.828;35.038;2024-02-04T16:32:07;8.60;;;2.67;;
65053;SDS011;51639;47.828;35.038;2024-02-04T16:47:10;5.83;;;2.10;;
65053;SDS011;51639;47.828;35.038;2024-02-04T17:02:12;5.03;;;1.77;;
65053;SDS011;51639;47.828;35.038;2024-02-04T17:17:15;7.43;;;2.70;;
65053;SDS011;51639;47.828;35.038;2024-02-04T17:32:22;7.03;;;2.87;;
65053;SDS011;51639;47.828;35.038;2024-02-04T17:47:28;6.83;;;2.20;;
65053;SDS011;51639;47.828;35.038;2024-02-04T18:02:35;4.77;;;1.90;;
65053;SDS011;51639;47.828;35.038;2024-02-04T18:17:47;3.97;;;2.30;;
65053;SDS011;51639;47.828;35.038;2024-02-04T18:32:54;5.53;;;2.73;;
65053;SDS011;51639;47.828;35.038;2024-02-04T18:47:56;6.93;;;3.07;;
65053;SDS011;51639;47.828;35.038;2024-02-04T19:03:00;11.27;;;4.10;;
65053;SDS011;51639;47.828;35.038;2024-02-04T19:18:02;8.50;;;4.07;;
65053;SDS011;51639;47.828;35.038;2024-02-04T19:33:05;9.63;;;4.83;;
65053;SDS011;51639;47.828;35.038;2024-02-04T19:48:08;8.63;;;3.57;;
65053;SDS011;51639;47.828;35.038;2024-02-04T20:03:11;8.97;;;3.37;;
65053;SDS011;51639;47.828;35.038;2024-02-04T20:18:14;6.03;;;3.93;;
65053;SDS011;51639;47.828;35.038;2024-02-04T20:33:17;10.37;;;4.20;;
65053;SDS011;51639;47.828;35.038;2024-02-04T20:48:19;6.50;;;3.97;;
65053;SDS011;51639;47.828;35.038;2024-02-04T21:03:21;6.30;;;3.13;;
65053;SDS011;51639;47.828;35.038;2024-02-04T21:18:24;13.43;;;5.80;;
65053;SDS011;51639;47.828;35.038;2024-02-04T21:33:26;7.63;;;3.10;;
65053;SDS011;51639;47.828;35.038;2024-02-04T21:48:28;7.83;;;2.90;;
65053;SDS011;51639;47.828;35.038;2024-02-04T22:03:30;7.13;;;3.03;;
65053;SDS011;51639;47.828;35.038;2024-02-04T22:18:34;4.73;;;2.93;;
65053;SDS011;51639;47.828;35.038;2024-02-04T22:33:37;5.33;;;2.97;;
65053;SDS011;51639;47.828;35.038;2024-02-04T22:48:39;7.30;;;2.70;;
65053;SDS011;51639;47.828;35.038;2024-02-04T23:03:41;10.43;;;4.17;;
65053;SDS011;51639;47.828;35.038;2024-02-04T23:18:43;5.30;;;2.83;;
65053;SDS011;51639;47.828;35.038;2024-02-04T23:33:46;3.37;;;2.00;;
65053;SDS011;51639;47.828;35.038;2024-02-04T23:48:48;2.30;;;1.90;;
